Time;durP1;ratioP1;P1;durP2;ratioP2;P2;SDS_P1;SDS_P2;PMS_P1;PMS_P2;Temp;Humidity;BMP_temperature;BMP_pressure;BME280_temperature;BME280_humidity;BME280_pressure;Samples;Min_cycle;Max_cycle;Signal;HPM_P1;HPM_P2
2023/06/21 00:00:45;;;;;;;16.40;14.90;;;;;;;-145.41;100.00;58600.66;5011152;28;20500;-75
2023/06/21 00:03:10;;;;;;;15.20;13.80;;;;;;;-145.41;100.00;58600.66;5000474;28;20657;-75
2023/06/21 00:05:38;;;;;;;16.20;14.60;;;;;;;-145.41;100.00;58600.66;5007063;28;20041;-75
2023/06/21 00:08:04;;;;;;;15.93;14.32;;;;;;;-145.41;100.00;58600.66;5012133;28;20033;-75
2023/06/21 00:10:30;;;;;;;15.38;13.88;;;;;;;-145.41;100.00;58600.66;5009649;28;20045;-75
2023/06/21 00:12:56;;;;;;;14.68;13.18;;;;;;;-145.41;100.00;58600.66;5014391;28;20042;-75
2023/06/21 00:15:22;;;;;;;15.80;14.30;;;;;;;-145.41;100.00;58600.66;5015569;28;20046;-75
2023/06/21 00:17:48;;;;;;;16.90;15.30;;;;;;;-145.41;100.00;58600.66;5005328;28;20084;-75
2023/06/21 00:20:14;;;;;;;16.58;15.07;;;;;;;-145.41;100.00;58600.66;5007561;28;20030;-75
2023/06/21 00:22:40;;;;;;;15.68;14.18;;;;;;;-145.41;100.00;58600.66;4998755;28;20087;-75
2023/06/21 00:25:07;;;;;;;15.73;13.82;;;;;;;-145.41;100.00;58600.66;5012365;28;20432;-75
2023/06/21 00:27:33;;;;;;;16.48;14.98;;;;;;;-145.41;100.00;58600.66;5009894;28;20038;-75
2023/06/21 00:30:00;;;;;;;16.77;15.23;;;;;;;-145.41;100.00;58600.66;4999225;28;20040;-75
2023/06/21 00:32:27;;;;;;;18.15;16.45;;;;;;;-145.41;100.00;58600.66;4997799;28;20412;-75
2023/06/21 00:34:53;;;;;;;17.00;15.43;;;;;;;-145.41;100.00;58600.66;5010558;28;20039;-75
2023/06/21 00:37:18;;;;;;;17.65;14.60;;;;;;;-145.41;100.00;58600.66;4999004;28;20053;-75
2023/06/21 00:39:43;;;;;;;16.85;15.23;;;;;;;-145.41;100.00;58600.66;5022906;28;20065;-75
2023/06/21 00:42:09;;;;;;;15.13;13.73;;;;;;;-145.41;100.00;58600.66;5017017;28;20029;-75
2023/06/21 00:44:35;;;;;;;16.58;15.05;;;;;;;-145.41;100.00;58600.66;4981481;28;20501;-75
2023/06/21 00:47:00;;;;;;;17.42;15.63;;;;;;;-145.41;100.00;58600.66;5009132;28;20039;-75
2023/06/21 00:49:27;;;;;;;18.33;16.52;;;;;;;-145.41;100.00;58600.66;4995178;28;20030;-75
2023/06/21 00:51:57;;;;;;;16.15;14.55;;;;;;;-145.41;100.00;58600.66;5009791;28;20484;-75
2023/06/21 00:54:26;;;;;;;16.65;15.05;;;;;;;-145.41;100.00;58600.66;5009242;28;20042;-75
2023/06/21 00:56:51;;;;;;;17.73;15.98;;;;;;;-145.41;100.00;58600.66;4992415;28;20098;-75
2023/06/21 00:59:17;;;;;;;17.90;15.75;;;;;;;-145.41;100.00;58600.66;4992797;28;20037;-75
2023/06/21 01:01:42;;;;;;;16.92;15.32;;;;;;;-145.41;100.00;58600.66;5008084;28;20030;-75
2023/06/21 01:04:09;;;;;;;18.25;16.40;;;;;;;-145.41;100.00;58600.66;5005334;28;20041;-75
2023/06/21 01:06:53;;;;;;;16.23;14.73;;;;;;;-145.41;100.00;58600.66;4998252;28;20036;-75
2023/06/21 01:09:34;;;;;;;22.40;18.10;;;;;;;-145.41;100.00;58600.66;5000359;28;20069;-75
2023/06/21 01:12:17;;;;;;;22.90;18.17;;;;;;;-145.41;100.00;58600.66;5018186;28;20408;-74
2023/06/21 01:14:49;;;;;;;26.98;18.10;;;;;;;-145.41;100.00;58600.66;5017759;28;20033;-79
2023/06/21 01:17:18;;;;;;;19.50;17.42;;;;;;;-145.41;100.00;58600.66;4988779;28;20559;-81
2023/06/21 01:19:54;;;;;;;20.20;18.08;;;;;;;-145.41;100.00;58600.66;5021691;28;20045;-81
2023/06/21 01:22:22;;;;;;;19.83;17.73;;;;;;;-145.41;100.00;58600.66;5017726;28;20037;-81
2023/06/21 01:25:18;;;;;;;20.73;18.60;;;;;;;-145.41;100.00;58600.66;5028958;28;20056;-81
2023/06/21 01:28:22;;;;;;;23.52;21.13;;;;;;;-145.41;100.00;58600.66;4986410;28;20026;-81
2023/06/21 01:30:48;;;;;;;23.83;20.48;;;;;;;-145.41;100.00;58600.66;5012884;28;20452;-81
2023/06/21 01:33:17;;;;;;;21.08;18.60;;;;;;;-145.41;100.00;58600.66;4990083;28;20025;-81
2023/06/21 01:35:43;;;;;;;23.38;20.98;;;;;;;-145.41;100.00;58600.66;4993039;28;20435;-81
2023/06/21 01:38:09;;;;;;;26.05;22.42;;;;;;;-145.41;100.00;58600.66;5015247;28;20048;-81
2023/06/21 01:40:37;;;;;;;21.27;19.05;;;;;;;-145.41;100.00;58600.66;4996659;28;20030;-81
2023/06/21 01:43:02;;;;;;;20.58;18.42;;;;;;;-145.41;100.00;58600.66;5000620;28;20033;-81
2023/06/21 01:45:28;;;;;;;24.77;22.25;;;;;;;-145.41;100.00;58600.66;4993620;28;20060;-81
2023/06/21 01:47:55;;;;;;;24.67;22.27;;;;;;;-145.41;100.00;58600.66;4998781;28;20029;-81
2023/06/21 01:50:21;;;;;;;25.83;22.95;;;;;;;-145.41;100.00;58600.66;5006007;28;20034;-81
2023/06/21 01:52:47;;;;;;;24.70;22.13;;;;;;;-145.41;100.00;58600.66;4983478;28;20030;-81
2023/06/21 01:55:13;;;;;;;25.10;22.58;;;;;;;-145.41;100.00;58600.66;5013708;28;20038;-81
2023/06/21 01:57:39;;;;;;;26.63;23.92;;;;;;;-145.41;100.00;58600.66;5001744;28;20042;-81
2023/06/21 02:00:17;;;;;;;28.00;25.00;;;;;;;-145.41;100.00;58600.66;4996856;28;20026;-81
2023/06/21 02:02:49;;;;;;;22.42;20.10;;;;;;;-145.41;100.00;58600.66;5001007;28;20100;-81
2023/06/21 02:05:16;;;;;;;24.27;21.73;;;;;;;-145.41;100.00;58600.66;5016466;28;20044;-81
2023/06/21 02:07:44;;;;;;;23.73;21.15;;;;;;;-145.41;100.00;58600.66;5004734;28;20775;-81
2023/06/21 02:10:11;;;;;;;23.95;21.55;;;;;;;-145.41;100.00;58600.66;5014564;28;20042;-81
2023/06/21 02:12:36;;;;;;;21.75;19.63;;;;;;;-145.41;100.00;58600.66;5004700;28;20102;-81
2023/06/21 02:15:03;;;;;;;23.52;21.33;;;;;;;-145.41;100.00;58600.66;5015378;28;20034;-81
2023/06/21 02:17:29;;;;;;;23.42;21.17;;;;;;;-145.41;100.00;58600.66;4998088;28;20034;-81
2023/06/21 02:19:55;;;;;;;24.20;21.73;;;;;;;-145.41;100.00;58600.66;5025164;28;20032;-81
2023/06/21 02:22:21;;;;;;;21.65;19.65;;;;;;;-145.41;100.00;58600.66;5003236;28;20033;-81
2023/06/21 02:24:46;;;;;;;24.25;21.52;;;;;;;-145.41;100.00;58600.66;5019816;28;20022;-81
2023/06/21 02:27:15;;;;;;;21.55;19.25;;;;;;;-145.41;100.00;58600.66;4998549;28;20116;-81
2023/06/21 02:29:40;;;;;;;21.27;19.10;;;;;;;-145.41;100.00;58600.66;5018719;28;20122;-81
2023/06/21 02:32:08;;;;;;;20.27;18.23;;;;;;;-145.41;100.00;58600.66;5007924;28;20030;-81
2023/06/21 02:34:34;;;;;;;21.17;18.98;;;;;;;-145.41;100.00;58600.66;5001767;28;20036;-81
2023/06/21 02:36:59;;;;;;;21.98;19.83;;;;;;;-145.41;100.00;58600.66;5006096;28;20037;-81
2023/06/21 02:39:24;;;;;;;25.55;23.25;;;;;;;-145.41;100.00;58600.66;5005748;28;20056;-81
2023/06/21 02:41:52;;;;;;;24.77;22.38;;;;;;;-145.41;100.00;58600.66;5002092;28;20045;-81
2023/06/21 02:44:18;;;;;;;26.20;23.65;;;;;;;-145.41;100.00;58600.66;5011779;28;20041;-81
2023/06/21 02:46:43;;;;;;;21.60;19.48;;;;;;;-145.41;100.00;58600.66;5010225;28;20041;-81
2023/06/21 02:49:08;;;;;;;22.05;19.80;;;;;;;-145.41;100.00;58600.66;5022058;28;20045;-81
2023/06/21 02:51:34;;;;;;;21.98;19.60;;;;;;;-145.41;100.00;58600.66;5006152;28;20030;-81
2023/06/21 02:53:59;;;;;;;30.50;27.30;;;;;;;-145.41;100.00;58600.66;5017266;28;20089;-82
2023/06/21 02:56:24;;;;;;;25.60;22.92;;;;;;;-145.41;100.00;58600.66;4989174;28;20082;-82
2023/06/21 02:58:50;;;;;;;21.73;19.60;;;;;;;-145.41;100.00;58600.66;5024020;28;20053;-81
2023/06/21 03:01:16;;;;;;;21.60;19.52;;;;;;;-145.41;100.00;58600.66;5007562;28;20036;-82
2023/06/21 03:03:43;;;;;;;22.38;20.17;;;;;;;-145.41;100.00;58600.66;5007060;28;20030;-82
2023/06/21 03:06:09;;;;;;;24.05;21.58;;;;;;;-145.41;100.00;58600.66;5003787;28;20033;-81
2023/06/21 03:08:36;;;;;;;23.13;20.80;;;;;;;-145.41;100.00;58600.66;5005573;28;20038;-81
2023/06/21 03:11:02;;;;;;;24.92;22.42;;;;;;;-145.41;100.00;58600.66;5010424;28;20042;-82
2023/06/21 03:13:27;;;;;;;26.05;23.42;;;;;;;-145.41;100.00;58600.66;5009292;28;20076;-81
2023/06/21 03:15:53;;;;;;;21.73;19.48;;;;;;;-145.41;100.00;58600.66;5006065;28;20120;-81
2023/06/21 03:18:18;;;;;;;22.27;18.60;;;;;;;-145.41;100.00;58600.66;5010707;28;20121;-81
2023/06/21 03:20:44;;;;;;;21.38;19.38;;;;;;;-145.41;100.00;58600.66;5021509;28;20025;-81
2023/06/21 03:23:09;;;;;;;18.33;16.60;;;;;;;-145.41;100.00;58600.66;5009280;28;20040;-81
2023/06/21 03:25:34;;;;;;;21.50;19.30;;;;;;;-145.41;100.00;58600.66;5013056;28;20032;-81
2023/06/21 03:28:00;;;;;;;22.13;19.83;;;;;;;-145.41;100.00;58600.66;5007587;28;20033;-82
2023/06/21 03:30:26;;;;;;;21.45;19.23;;;;;;;-145.41;100.00;58600.66;5008684;28;20108;-81
2023/06/21 03:32:52;;;;;;;22.20;19.80;;;;;;;-145.41;100.00;58600.66;5003403;28;20072;-81
2023/06/21 03:35:18;;;;;;;20.05;18.05;;;;;;;-145.41;100.00;58600.66;5004976;28;20041;-82
2023/06/21 03:37:46;;;;;;;20.25;18.23;;;;;;;-145.41;100.00;58600.66;5009197;28;20196;-82
2023/06/21 03:40:15;;;;;;;21.58;19.40;;;;;;;-145.41;100.00;58600.66;5009897;28;20034;-81
2023/06/21 03:42:42;;;;;;;20.75;18.55;;;;;;;-145.41;100.00;58600.66;5026977;28;20181;-81
2023/06/21 03:45:08;;;;;;;22.27;20.08;;;;;;;-145.41;100.00;58600.66;5006940;28;20047;-81
2023/06/21 03:47:37;;;;;;;21.58;19.33;;;;;;;-145.41;100.00;58600.66;5006878;28;20088;-82
2023/06/21 03:50:03;;;;;;;18.05;16.33;;;;;;;-145.41;100.00;58600.66;5008145;28;20029;-82
2023/06/21 03:52:29;;;;;;;22.42;20.17;;;;;;;-145.41;100.00;58600.66;5003874;28;20037;-82
2023/06/21 03:54:55;;;;;;;18.90;16.77;;;;;;;-145.41;100.00;58600.66;5011629;28;20041;-81
2023/06/21 03:57:20;;;;;;;19.42;17.35;;;;;;;-145.41;100.00;58600.66;5002304;28;20041;-82
2023/06/21 03:59:45;;;;;;;20.05;17.95;;;;;;;-145.41;100.00;58600.66;5004166;28;20551;-82
2023/06/21 04:02:11;;;;;;;21.40;19.23;;;;;;;-145.41;100.00;58600.66;5012135;28;20041;-82
2023/06/21 04:04:38;;;;;;;21.15;19.20;;;;;;;-145.41;100.00;58600.66;5021349;28;20064;-82
2023/06/21 04:07:04;;;;;;;18.73;16.92;;;;;;;-145.41;100.00;58600.66;5005086;28;20033;-82
2023/06/21 04:09:29;;;;;;;21.50;19.48;;;;;;;-145.41;100.00;58600.66;5005475;28;20036;-82
2023/06/21 04:11:55;;;;;;;24.08;21.48;;;;;;;-145.41;100.00;58600.66;5030001;23;20391;-79
2023/06/21 04:14:20;;;;;;;26.88;24.30;;;;;;;-145.41;100.00;58600.66;5014885;28;20040;-80
2023/06/21 04:16:45;;;;;;;22.25;19.92;;;;;;;-145.41;100.00;58600.66;5032975;28;20427;-79
2023/06/21 04:19:11;;;;;;;18.35;16.63;;;;;;;-145.41;100.00;58600.66;5019259;28;20451;-80
2023/06/21 04:21:38;;;;;;;18.17;16.38;;;;;;;-145.41;100.00;58600.66;5031109;28;20026;-80
2023/06/21 04:24:04;;;;;;;23.20;20.55;;;;;;;-145.41;100.00;58600.66;5022873;28;20036;-80
2023/06/21 04:26:31;;;;;;;20.00;18.10;;;;;;;-145.41;100.00;58600.66;5002934;28;20432;-81
2023/06/21 04:28:56;;;;;;;19.15;17.15;;;;;;;-145.41;100.00;58600.66;5006003;28;20037;-81
2023/06/21 04:31:21;;;;;;;17.08;15.40;;;;;;;-145.41;100.00;58600.66;5028300;28;20037;-80
2023/06/21 04:33:47;;;;;;;17.23;15.57;;;;;;;-145.41;100.00;58600.66;5020109;28;20044;-81
2023/06/21 04:36:17;;;;;;;19.45;16.45;;;;;;;-145.41;100.00;58600.66;5017506;28;20045;-81
2023/06/21 04:38:43;;;;;;;20.48;16.70;;;;;;;-145.41;100.00;58600.66;4996498;28;20036;-80
2023/06/21 04:41:09;;;;;;;22.80;19.48;;;;;;;-145.41;100.00;58600.66;5004389;28;20034;-80
2023/06/21 04:43:35;;;;;;;20.33;18.30;;;;;;;-145.41;100.00;58600.66;5023045;28;20029;-78
2023/06/21 04:46:01;;;;;;;20.58;18.55;;;;;;;-145.41;100.00;58600.66;4997760;28;20040;-78
2023/06/21 04:48:26;;;;;;;16.88;15.10;;;;;;;-145.41;100.00;58600.66;5018778;28;20030;-78
2023/06/21 04:50:51;;;;;;;14.77;13.20;;;;;;;-145.41;100.00;58600.66;5018204;28;20041;-78
2023/06/21 04:53:17;;;;;;;13.90;12.60;;;;;;;-145.41;100.00;58600.66;5023139;28;20045;-80
2023/06/21 04:55:42;;;;;;;13.57;12.27;;;;;;;-145.41;100.00;58600.66;5016670;28;20037;-79
2023/06/21 04:58:09;;;;;;;13.13;11.77;;;;;;;-145.41;100.00;58600.66;5025762;28;20060;-80
2023/06/21 05:00:35;;;;;;;13.40;9.20;;;;;;;-145.41;100.00;58600.66;5021564;28;20064;-79
2023/06/21 05:03:01;;;;;;;9.70;8.35;;;;;;;-145.41;100.00;58600.66;5015865;28;20560;-79
2023/06/21 05:05:26;;;;;;;9.95;7.97;;;;;;;-145.41;100.00;58600.66;5027041;28;20112;-79
2023/06/21 05:07:51;;;;;;;12.85;9.93;;;;;;;-145.41;100.00;58600.66;5019663;28;20052;-79
2023/06/21 05:10:17;;;;;;;10.50;6.30;;;;;;;-145.41;100.00;58600.66;5020024;28;20065;-79
2023/06/21 05:12:42;;;;;;;7.82;6.07;;;;;;;-145.41;100.00;58600.66;5023954;28;20044;-79
2023/06/21 05:15:08;;;;;;;12.30;7.00;;;;;;;-145.41;100.00;58600.66;5015821;28;20120;-80
2023/06/21 05:17:34;;;;;;;7.80;5.28;;;;;;;-145.41;100.00;58600.66;5020424;28;20088;-80
2023/06/21 05:20:00;;;;;;;12.85;5.40;;;;;;;-145.41;100.00;58600.66;5022640;28;20041;-80
2023/06/21 05:22:25;;;;;;;6.95;4.93;;;;;;;-145.41;100.00;58600.66;5024632;28;20108;-80
2023/06/21 05:24:50;;;;;;;7.13;5.10;;;;;;;-145.41;100.00;58600.66;4999725;28;20186;-79
2023/06/21 05:27:16;;;;;;;7.72;4.38;;;;;;;-145.41;100.00;58600.66;4999720;28;20361;-80
2023/06/21 05:29:41;;;;;;;8.98;5.68;;;;;;;-145.41;100.00;58600.66;5022493;28;20529;-80
2023/06/21 05:32:07;;;;;;;8.00;4.88;;;;;;;-145.41;100.00;58600.66;5020865;28;20574;-79
2023/06/21 05:34:32;;;;;;;15.23;5.60;;;;;;;-145.41;100.00;58600.66;5026868;28;20401;-80
2023/06/21 05:36:57;;;;;;;8.63;4.50;;;;;;;-145.41;100.00;58600.66;5019577;28;20033;-79
2023/06/21 05:39:23;;;;;;;9.15;4.90;;;;;;;-145.41;100.00;58600.66;5013004;28;20041;-79
2023/06/21 05:41:48;;;;;;;8.25;4.30;;;;;;;-145.41;100.00;58600.66;5003685;28;20033;-80
2023/06/21 05:44:13;;;;;;;8.95;4.85;;;;;;;-145.41;100.00;58600.66;5022306;28;20045;-80
2023/06/21 05:46:39;;;;;;;7.63;4.13;;;;;;;-145.41;100.00;58600.66;5019458;28;20484;-79
2023/06/21 05:49:04;;;;;;;7.72;4.57;;;;;;;-145.41;100.00;58600.66;5020182;28;20460;-80
2023/06/21 05:51:29;;;;;;;13.18;4.97;;;;;;;-145.41;100.00;58600.66;5019097;28;20042;-79
2023/06/21 05:53:56;;;;;;;7.13;5.40;;;;;;;-145.41;100.00;58600.66;5022774;28;20050;-80
2023/06/21 05:56:24;;;;;;;8.43;6.20;;;;;;;-145.41;100.00;58600.66;4998456;28;20034;-80
2023/06/21 05:58:50;;;;;;;8.15;5.05;;;;;;;-145.41;100.00;58600.66;5025257;28;20117;-79
2023/06/21 06:01:15;;;;;;;8.10;5.18;;;;;;;-145.41;100.00;58600.66;5019891;28;20061;-79
2023/06/21 06:03:41;;;;;;;8.77;6.65;;;;;;;-145.41;100.00;58600.66;5018000;28;20034;-79
2023/06/21 06:06:08;;;;;;;8.57;5.75;;;;;;;-145.41;100.00;58600.66;5020533;28;20041;-79
2023/06/21 06:08:33;;;;;;;9.05;5.68;;;;;;;-145.41;100.00;58600.66;5019423;28;20477;-78
2023/06/21 06:10:59;;;;;;;10.18;6.88;;;;;;;-145.41;100.00;58600.66;5018090;28;20109;-78
2023/06/21 06:13:24;;;;;;;8.50;5.13;;;;;;;-145.41;100.00;58600.66;5020318;28;20041;-78
2023/06/21 06:15:49;;;;;;;10.02;5.85;;;;;;;-145.41;100.00;58600.66;5013225;28;20026;-78
2023/06/21 06:18:14;;;;;;;8.70;5.20;;;;;;;-145.41;100.00;58600.66;5022806;28;20041;-78
2023/06/21 06:20:41;;;;;;;7.28;6.00;;;;;;;-145.41;100.00;58600.66;5018907;28;20034;-78
2023/06/21 06:23:10;;;;;;;8.95;5.22;;;;;;;-145.41;100.00;58600.66;5014561;28;20045;-78
2023/06/21 06:25:35;;;;;;;12.38;6.38;;;;;;;-145.41;100.00;58600.66;5020544;28;20033;-78
2023/06/21 06:28:00;;;;;;;9.10;6.18;;;;;;;-145.41;100.00;58600.66;5019135;28;20036;-77
2023/06/21 06:30:26;;;;;;;9.98;6.05;;;;;;;-145.41;100.00;58600.66;5023873;28;20079;-78
2023/06/21 06:32:51;;;;;;;8.00;5.80;;;;;;;-145.41;100.00;58600.66;5022749;28;20164;-77
2023/06/21 06:35:16;;;;;;;8.50;6.32;;;;;;;-145.41;100.00;58600.66;5018324;28;20068;-77
2023/06/21 06:37:42;;;;;;;8.63;6.60;;;;;;;-145.41;100.00;58600.66;5016023;28;20033;-77
2023/06/21 06:40:08;;;;;;;10.02;6.75;;;;;;;-145.41;100.00;58600.66;5001449;28;20115;-77
2023/06/21 06:42:33;;;;;;;9.48;5.95;;;;;;;-145.41;100.00;58600.66;5014273;28;20038;-77
2023/06/21 06:44:58;;;;;;;8.75;6.40;;;;;;;-145.41;100.00;58600.66;5001454;28;20030;-76
2023/06/21 06:47:24;;;;;;;11.50;6.68;;;;;;;-145.41;100.00;58600.66;5023177;28;20029;-77
2023/06/21 06:49:49;;;;;;;10.40;6.25;;;;;;;-145.41;100.00;58600.66;5024115;28;20043;-76
2023/06/21 06:52:15;;;;;;;9.18;6.65;;;;;;;-145.41;100.00;58600.66;5019723;28;20077;-77
2023/06/21 06:54:40;;;;;;;11.25;6.45;;;;;;;-145.41;100.00;58600.66;5025007;28;20030;-76
2023/06/21 06:57:06;;;;;;;11.52;8.00;;;;;;;-145.41;100.00;58600.66;5017896;28;20041;-77
2023/06/21 06:59:31;;;;;;;9.00;7.43;;;;;;;-145.41;100.00;58600.66;5023776;28;20029;-76
2023/06/21 07:01:56;;;;;;;10.80;7.78;;;;;;;-145.41;100.00;58600.66;5016615;28;20504;-77
2023/06/21 07:04:22;;;;;;;10.13;8.32;;;;;;;-145.41;100.00;58600.66;5020016;28;20595;-77
2023/06/21 07:06:47;;;;;;;9.77;6.72;;;;;;;-145.41;100.00;58600.66;5018025;28;20038;-77
2023/06/21 07:09:12;;;;;;;15.68;9.52;;;;;;;-145.41;100.00;58600.66;5020549;28;20044;-76
2023/06/21 07:11:38;;;;;;;8.75;6.88;;;;;;;-145.41;100.00;58600.66;5017842;28;20030;-77
2023/06/21 07:14:03;;;;;;;10.32;7.43;;;;;;;-145.41;100.00;58600.66;5027231;28;20049;-77
2023/06/21 07:16:33;;;;;;;11.32;7.82;;;;;;;-145.41;100.00;58600.66;5024323;28;20037;-77
2023/06/21 07:18:58;;;;;;;10.80;6.70;;;;;;;-145.41;100.00;58600.66;5020905;28;20037;-77
2023/06/21 07:21:27;;;;;;;14.20;7.07;;;;;;;-145.41;100.00;58600.66;5018535;28;20072;-77
2023/06/21 07:23:52;;;;;;;15.95;7.13;;;;;;;-145.41;100.00;58600.66;5005515;28;20050;-77
2023/06/21 07:26:17;;;;;;;8.52;6.97;;;;;;;-145.41;100.00;58600.66;5017192;28;20038;-77
2023/06/21 07:28:43;;;;;;;7.53;6.25;;;;;;;-145.41;100.00;58600.66;5019756;28;20113;-76
2023/06/21 07:31:08;;;;;;;8.95;5.90;;;;;;;-145.41;100.00;58600.66;5024223;28;20416;-77
2023/06/21 07:33:34;;;;;;;8.30;5.95;;;;;;;-145.41;100.00;58600.66;5010095;28;20497;-77
2023/06/21 07:35:59;;;;;;;7.18;5.28;;;;;;;-145.41;100.00;58600.66;5028948;28;20030;-77
2023/06/21 07:38:24;;;;;;;8.15;5.93;;;;;;;-145.41;100.00;58600.66;5022433;28;20155;-77
2023/06/21 07:40:50;;;;;;;6.03;5.00;;;;;;;-145.41;100.00;58600.66;5025198;28;20485;-76
2023/06/21 07:43:15;;;;;;;10.57;5.80;;;;;;;-145.41;100.00;58600.66;5001053;28;20437;-76
2023/06/21 07:45:43;;;;;;;7.75;5.40;;;;;;;-145.41;100.00;58600.66;5025096;28;20037;-77
2023/06/21 07:48:08;;;;;;;6.13;5.03;;;;;;;-145.41;100.00;58600.66;5019858;28;20033;-77
2023/06/21 07:50:34;;;;;;;7.60;5.57;;;;;;;-145.41;100.00;58600.66;5021531;28;20484;-77
2023/06/21 07:52:59;;;;;;;9.60;5.97;;;;;;;-145.41;100.00;58600.66;5018899;28;20053;-77
2023/06/21 07:55:24;;;;;;;11.68;5.88;;;;;;;-145.41;100.00;58600.66;5023042;28;20109;-77
2023/06/21 07:57:50;;;;;;;9.23;6.35;;;;;;;-145.41;100.00;58600.66;5017440;28;20070;-77
2023/06/21 08:00:16;;;;;;;8.80;5.65;;;;;;;-145.41;100.00;58600.66;5025521;28;20455;-76
2023/06/21 08:02:44;;;;;;;8.00;5.40;;;;;;;-145.41;100.00;58600.66;5019126;28;20034;-77
2023/06/21 08:05:09;;;;;;;8.27;5.80;;;;;;;-145.41;100.00;58600.66;5016590;28;20045;-76
2023/06/21 08:07:34;;;;;;;9.80;5.40;;;;;;;-145.41;100.00;58600.66;5019201;28;20041;-77
2023/06/21 08:10:00;;;;;;;9.90;6.13;;;;;;;-145.41;100.00;58600.66;5019134;28;20047;-77
2023/06/21 08:12:25;;;;;;;8.30;6.03;;;;;;;-145.41;100.00;58600.66;5021709;28;20045;-77
2023/06/21 08:14:50;;;;;;;7.50;5.88;;;;;;;-145.41;100.00;58600.66;5014063;28;20049;-77
2023/06/21 08:17:16;;;;;;;10.85;6.32;;;;;;;-145.41;100.00;58600.66;5023633;28;20072;-76
2023/06/21 08:19:41;;;;;;;8.73;5.80;;;;;;;-145.41;100.00;58600.66;5015559;28;20030;-77
2023/06/21 08:22:06;;;;;;;9.45;6.40;;;;;;;-145.41;100.00;58600.66;5021690;28;20096;-76
2023/06/21 08:24:33;;;;;;;8.45;6.10;;;;;;;-145.41;100.00;58600.66;5017560;28;20041;-77
2023/06/21 08:26:58;;;;;;;9.07;5.80;;;;;;;-145.41;100.00;58600.66;5021273;28;20057;-76
2023/06/21 08:29:23;;;;;;;8.45;5.90;;;;;;;-145.41;100.00;58600.66;5016709;28;20041;-77
2023/06/21 08:31:49;;;;;;;8.82;6.32;;;;;;;-145.41;100.00;58600.66;5023786;28;20029;-77
2023/06/21 08:34:14;;;;;;;8.57;6.07;;;;;;;-145.41;100.00;58600.66;5020978;28;20041;-77
2023/06/21 08:36:39;;;;;;;8.73;6.97;;;;;;;-145.41;100.00;58600.66;5001337;28;20125;-77
2023/06/21 08:39:05;;;;;;;9.18;6.20;;;;;;;-145.41;100.00;58600.66;5001541;28;20030;-77
2023/06/21 08:41:30;;;;;;;7.70;5.68;;;;;;;-145.41;100.00;58600.66;5019651;28;20088;-77
2023/06/21 08:43:56;;;;;;;10.13;6.95;;;;;;;-145.41;100.00;58600.66;5022834;28;20037;-77
2023/06/21 08:46:25;;;;;;;10.43;5.57;;;;;;;-145.41;100.00;58600.66;5015825;28;20056;-77
2023/06/21 08:48:52;;;;;;;9.73;5.70;;;;;;;-145.41;100.00;58600.66;5020372;28;20041;-77
2023/06/21 08:51:20;;;;;;;8.82;6.20;;;;;;;-145.41;100.00;58600.66;5015771;28;20026;-77
2023/06/21 08:53:55;;;;;;;8.80;5.63;;;;;;;-145.41;100.00;58600.66;5025391;28;20033;-77
2023/06/21 08:56:23;;;;;;;7.43;5.20;;;;;;;-145.41;100.00;58600.66;5018917;28;20037;-77
2023/06/21 08:58:59;;;;;;;6.72;5.05;;;;;;;-145.41;100.00;58600.66;5014523;28;20081;-77
2023/06/21 09:01:28;;;;;;;7.97;4.78;;;;;;;-145.41;100.00;58600.66;5019954;28;20032;-77
2023/06/21 09:03:58;;;;;;;8.27;5.97;;;;;;;-145.41;100.00;58600.66;5019136;28;20037;-77
2023/06/21 09:06:25;;;;;;;9.38;6.13;;;;;;;-145.41;100.00;58600.66;5016693;28;20048;-76
2023/06/21 09:08:53;;;;;;;8.43;5.82;;;;;;;-145.41;100.00;58600.66;5019767;28;20507;-77
2023/06/21 09:11:21;;;;;;;8.57;5.40;;;;;;;-145.41;100.00;58600.66;5020351;28;20091;-77
2023/06/21 09:13:47;;;;;;;6.32;5.00;;;;;;;-145.41;100.00;58600.66;5016152;28;20493;-77
2023/06/21 09:16:13;;;;;;;8.98;8.07;;;;;;;-145.41;100.00;58600.66;5003077;28;20718;-77
2023/06/21 09:18:39;;;;;;;9.10;8.18;;;;;;;-145.41;100.00;58600.66;5021050;28;20040;-77
2023/06/21 09:21:08;;;;;;;8.88;5.72;;;;;;;-145.41;100.00;58600.66;5003520;28;20092;-77
2023/06/21 09:23:40;;;;;;;9.93;5.80;;;;;;;-145.41;100.00;58600.66;5013907;28;20457;-77
2023/06/21 09:26:06;;;;;;;;;;;;;;;-145.41;100.00;58600.66;5014330;28;20095;-77
2023/06/21 09:28:32;;;;;;;7.53;5.20;;;;;;;-145.41;100.00;58600.66;5006265;28;19913;-77
2023/06/21 09:30:57;;;;;;;9.23;5.55;;;;;;;-145.41;100.00;58600.66;5015834;28;20377;-77
2023/06/21 09:33:26;;;;;;;8.20;6.03;;;;;;;-145.41;100.00;58600.66;5020618;28;20045;-77
2023/06/21 09:35:51;;;;;;;7.32;5.90;;;;;;;-145.41;100.00;58600.66;5017622;28;20065;-77
2023/06/21 09:38:26;;;;;;;8.15;6.00;;;;;;;-145.41;100.00;58600.66;5013678;28;20076;-77
2023/06/21 09:40:52;;;;;;;7.20;5.50;;;;;;;-145.41;100.00;58600.66;4998936;28;20508;-77
2023/06/21 09:43:20;;;;;;;6.22;5.35;;;;;;;-145.41;100.00;58600.66;5022943;28;20087;-77
2023/06/21 09:46:05;;;;;;;8.93;5.32;;;;;;;-145.41;100.00;58600.66;4994251;28;20074;-76
2023/06/21 09:48:34;;;;;;;9.10;5.32;;;;;;;-145.41;100.00;58600.66;5020858;28;20025;-77
2023/06/21 09:51:08;;;;;;;7.47;4.97;;;;;;;-145.41;100.00;58600.66;5021179;28;20038;-77
2023/06/21 09:53:35;;;;;;;6.80;5.63;;;;;;;-145.41;100.00;58600.66;5012403;28;20034;-77
2023/06/21 09:56:00;;;;;;;7.93;5.32;;;;;;;-145.41;100.00;58600.66;5018161;28;20030;-77
2023/06/21 09:58:27;;;;;;;8.52;4.95;;;;;;;-145.41;100.00;58600.66;5022949;28;20032;-77
2023/06/21 10:00:54;;;;;;;8.23;4.78;;;;;;;-145.41;100.00;58600.66;5000593;28;20091;-77
2023/06/21 10:03:24;;;;;;;6.28;4.38;;;;;;;-145.41;100.00;58600.66;5022434;28;20057;-76
2023/06/21 10:05:57;;;;;;;8.13;5.07;;;;;;;-145.41;100.00;58600.66;5011454;28;20384;-77
2023/06/21 10:08:24;;;;;;;6.85;4.22;;;;;;;-145.41;100.00;58600.66;5025138;28;20041;-76
2023/06/21 10:10:49;;;;;;;5.32;4.50;;;;;;;-145.41;100.00;58600.66;5014266;28;20038;-77
2023/06/21 10:13:15;;;;;;;7.45;4.65;;;;;;;-145.41;100.00;58600.66;5021931;28;20046;-77
2023/06/21 10:15:45;;;;;;;5.85;4.85;;;;;;;-145.41;100.00;58600.66;5014537;28;20550;-77
2023/06/21 10:18:12;;;;;;;6.63;4.50;;;;;;;-145.41;100.00;58600.66;5023199;28;20037;-78
2023/06/21 10:20:40;;;;;;;6.43;5.07;;;;;;;-145.41;100.00;58600.66;5012034;28;20186;-77
2023/06/21 10:23:07;;;;;;;6.20;4.60;;;;;;;-145.41;100.00;58600.66;5023771;28;20041;-77
2023/06/21 10:25:33;;;;;;;6.22;4.82;;;;;;;-145.41;100.00;58600.66;5022595;28;20033;-77
2023/06/21 10:28:01;;;;;;;6.88;4.50;;;;;;;-145.41;100.00;58600.66;5021416;28;20040;-77
2023/06/21 10:30:28;;;;;;;5.68;4.25;;;;;;;-145.41;100.00;58600.66;5022287;28;20030;-77
2023/06/21 10:32:57;;;;;;;6.20;4.13;;;;;;;-145.41;100.00;58600.66;5021350;28;20041;-77
2023/06/21 10:35:27;;;;;;;7.65;5.10;;;;;;;-145.41;100.00;58600.66;5020632;28;20489;-77
2023/06/21 10:38:08;;;;;;;6.05;3.83;;;;;;;-145.41;100.00;58600.66;5018324;28;20056;-77
2023/06/21 10:40:37;;;;;;;;;;;;;;;-145.41;100.00;58600.66;5016728;28;20029;-77
2023/06/21 10:43:03;;;;;;;5.97;4.10;;;;;;;-145.41;100.00;58600.66;5016246;28;20345;-77
2023/06/21 10:45:33;;;;;;;6.95;4.22;;;;;;;-145.41;100.00;58600.66;5020157;28;20145;-77
2023/06/21 10:47:59;;;;;;;4.97;3.95;;;;;;;-145.41;100.00;58600.66;5019165;28;20512;-77
2023/06/21 10:50:26;;;;;;;5.18;3.55;;;;;;;-145.41;100.00;58600.66;5025177;28;20040;-77
2023/06/21 10:52:57;;;;;;;5.35;3.67;;;;;;;-145.41;100.00;58600.66;5019295;28;20096;-77
2023/06/21 10:55:22;;;;;;;5.93;3.65;;;;;;;-145.41;100.00;58600.66;5017709;28;20558;-77
2023/06/21 10:57:53;;;;;;;5.78;4.60;;;;;;;-145.41;100.00;58600.66;5020296;28;20026;-77
2023/06/21 11:00:19;;;;;;;6.57;3.43;;;;;;;-145.41;100.00;58600.66;5022913;28;20025;-77